Time;durP1;ratioP1;P1;durP2;ratioP2;P2;SDS_P1;SDS_P2;PMS_P1;PMS_P2;Temp;Humidity;BMP_temperature;BMP_pressure;BME280_temperature;BME280_humidity;BME280_pressure;Samples;Min_cycle;Max_cycle;Signal;HPM_P1;HPM_P2
2023/10/27 00:01:35;;;;;;;36.20;26.50;;;;;;;14.11;100.00;99463.30;109578;1253;59986;-72
2023/10/27 00:04:02;;;;;;;37.40;27.40;;;;;;;14.14;100.00;99465.51;109509;1254;73113;-72
2023/10/27 00:06:32;;;;;;;36.90;26.80;;;;;;;14.15;100.00;99467.68;109539;1254;62445;-73
2023/10/27 00:09:00;;;;;;;36.10;26.30;;;;;;;14.19;100.00;99470.85;109515;1253;72450;-72
2023/10/27 00:11:28;;;;;;;43.90;29.80;;;;;;;14.21;100.00;99466.65;109496;1257;61211;-72
2023/10/27 00:13:55;;;;;;;39.10;28.20;;;;;;;14.24;100.00;99462.62;109546;1253;60438;-71
2023/10/27 00:16:23;;;;;;;41.00;27.70;;;;;;;14.28;100.00;99450.79;109534;1254;73056;-70
2023/10/27 00:18:50;;;;;;;41.00;28.10;;;;;;;14.32;100.00;99445.02;109511;1253;63624;-72
2023/10/27 00:21:19;;;;;;;40.00;27.70;;;;;;;14.34;100.00;99442.90;109522;1254;71254;-72
2023/10/27 00:23:48;;;;;;;38.70;27.40;;;;;;;14.36;100.00;99439.67;109516;1254;60828;-72
2023/10/27 00:26:16;;;;;;;41.50;29.20;;;;;;;14.39;100.00;99432.25;109565;1253;60547;-72
2023/10/27 00:28:46;;;;;;;41.40;28.60;;;;;;;14.41;100.00;99433.80;109530;1254;73580;-73
2023/10/27 00:31:14;;;;;;;37.00;26.40;;;;;;;14.41;100.00;99429.97;109634;1253;61313;-72
2023/10/27 00:33:41;;;;;;;40.20;27.10;;;;;;;14.41;100.00;99434.30;109428;1254;71764;-72
2023/10/27 00:36:09;;;;;;;33.80;25.40;;;;;;;14.42;100.00;99437.70;109404;1253;61867;-74
2023/10/27 00:38:36;;;;;;;40.60;29.00;;;;;;;14.42;100.00;99452.02;109527;1253;60075;-73
2023/10/27 00:41:04;;;;;;;36.00;27.90;;;;;;;14.38;100.00;99449.73;109582;1253;71866;-73
2023/10/27 00:43:31;;;;;;;37.20;28.30;;;;;;;14.33;100.00;99447.77;109537;1254;62353;-73
2023/10/27 00:45:58;;;;;;;43.00;28.40;;;;;;;14.26;100.00;99441.02;109489;1253;72402;-73
2023/10/27 00:48:26;;;;;;;34.30;26.10;;;;;;;14.19;100.00;99435.99;109505;1253;59386;-73
2023/10/27 00:50:53;;;;;;;41.50;28.50;;;;;;;14.15;100.00;99437.51;109518;1253;58817;-73
2023/10/27 00:53:21;;;;;;;43.40;28.40;;;;;;;14.10;100.00;99441.11;109525;1254;72857;-74
2023/10/27 00:55:49;;;;;;;39.40;27.80;;;;;;;14.07;100.00;99447.64;109514;1252;63536;-73
2023/10/27 00:58:16;;;;;;;39.90;26.90;;;;;;;14.06;100.00;99458.45;109472;1254;71556;-74
2023/10/27 01:00:43;;;;;;;36.70;28.50;;;;;;;14.05;100.00;99454.35;109461;1253;60533;-74
2023/10/27 01:03:11;;;;;;;37.30;26.70;;;;;;;14.06;100.00;99435.88;109544;1253;59006;-75
2023/10/27 01:05:40;;;;;;;39.30;27.30;;;;;;;14.06;100.00;99425.66;109491;1253;73105;-73
2023/10/27 01:08:08;;;;;;;35.40;26.30;;;;;;;14.05;100.00;99413.98;109546;1253;63792;-74
2023/10/27 01:10:37;;;;;;;36.50;26.70;;;;;;;14.04;100.00;99407.77;109460;1254;71682;-74
2023/10/27 01:13:04;;;;;;;37.30;25.90;;;;;;;14.03;100.00;99407.11;109471;1254;61701;-75
2023/10/27 01:15:32;;;;;;;36.30;26.00;;;;;;;14.03;100.00;99398.38;109598;1253;59023;-74
2023/10/27 01:18:00;;;;;;;32.50;26.40;;;;;;;13.99;100.00;99396.23;109540;1253;72985;-74
2023/10/27 01:20:27;;;;;;;31.80;24.80;;;;;;;13.95;100.00;99395.73;109500;1254;62289;-73
2023/10/27 01:22:55;;;;;;;37.60;26.80;;;;;;;13.95;100.00;99387.69;109516;1253;73745;-73
2023/10/27 01:25:22;;;;;;;37.10;25.80;;;;;;;13.95;100.00;99383.64;109550;1254;61687;-73
2023/10/27 01:27:50;;;;;;;37.70;26.20;;;;;;;13.94;100.00;99382.17;109547;1254;60009;-73
2023/10/27 01:30:17;;;;;;;33.60;25.10;;;;;;;13.93;100.00;99387.70;109464;1253;73938;-73
2023/10/27 01:32:45;;;;;;;33.60;24.40;;;;;;;13.94;100.00;99392.66;109525;1253;63692;-73
2023/10/27 01:35:13;;;;;;;39.30;26.70;;;;;;;13.95;100.00;99392.95;109496;1252;71379;-73
2023/10/27 01:37:41;;;;;;;32.00;24.70;;;;;;;13.96;100.00;99390.44;109461;1254;63204;-74
2023/10/27 01:40:09;;;;;;;32.70;25.10;;;;;;;13.95;100.00;99395.37;109541;1252;58937;-73
2023/10/27 01:42:37;;;;;;;34.80;23.00;;;;;;;13.95;100.00;99399.98;109517;1253;74013;-74
2023/10/27 01:45:05;;;;;;;36.40;25.60;;;;;;;13.95;100.00;99392.63;109532;1253;62478;-73
2023/10/27 01:47:33;;;;;;;38.50;26.50;;;;;;;13.95;100.00;99393.60;109510;1254;72612;-74
2023/10/27 01:50:03;;;;;;;34.80;24.70;;;;;;;13.96;100.00;99391.65;109413;1254;62019;-73
2023/10/27 01:52:31;;;;;;;39.00;26.00;;;;;;;13.95;100.00;99394.52;109517;1254;58817;-73
2023/10/27 01:54:59;;;;;;;39.30;25.40;;;;;;;13.95;100.00;99386.44;109499;1254;73862;-72
2023/10/27 01:57:26;;;;;;;42.80;30.30;;;;;;;13.96;100.00;99386.92;109423;1254;63695;-73
2023/10/27 01:59:53;;;;;;;42.20;30.20;;;;;;;13.97;100.00;99392.10;109364;1253;72454;-73
2023/10/27 02:02:21;;;;;;;36.30;25.30;;;;;;;13.97;100.00;99397.14;109435;1253;61694;-73
2023/10/27 02:04:49;;;;;;;31.80;25.70;;;;;;;13.97;100.00;99397.17;109523;1252;62206;-72
2023/10/27 02:07:16;;;;;;;36.40;25.30;;;;;;;13.97;100.00;99399.81;109462;1253;73821;-74
2023/10/27 02:09:44;;;;;;;36.20;25.30;;;;;;;13.96;100.00;99398.16;109410;1254;63910;-72
2023/10/27 02:12:12;;;;;;;33.90;24.60;;;;;;;13.95;100.00;99400.84;109381;1252;71693;-72
2023/10/27 02:14:39;;;;;;;35.80;25.40;;;;;;;13.96;100.00;99399.20;109508;1252;61632;-72
2023/10/27 02:17:07;;;;;;;38.30;24.50;;;;;;;13.95;100.00;99391.51;109420;1254;59802;-72
2023/10/27 02:19:34;;;;;;;36.10;24.60;;;;;;;13.94;100.00;99397.77;109518;1253;72617;-72
2023/10/27 02:22:02;;;;;;;39.80;25.30;;;;;;;13.94;100.00;99409.21;109535;1252;63560;-73
2023/10/27 02:24:29;;;;;;;34.80;24.30;;;;;;;13.93;100.00;99421.42;109394;1254;71467;-72
2023/10/27 02:26:58;;;;;;;32.00;21.30;;;;;;;13.94;100.00;99428.75;109510;1253;61647;-73
2023/10/27 02:29:25;;;;;;;37.50;22.40;;;;;;;13.95;100.00;99426.83;109448;1253;58793;-73
2023/10/27 02:31:53;;;;;;;35.70;21.90;;;;;;;13.97;100.00;99415.83;109494;1253;72540;-73
2023/10/27 02:34:20;;;;;;;32.00;20.30;;;;;;;13.97;100.00;99401.89;109511;1253;62543;-74
2023/10/27 02:36:48;;;;;;;30.40;18.90;;;;;;;13.97;100.00;99389.59;109493;1253;71277;-73
2023/10/27 02:39:16;;;;;;;29.20;18.40;;;;;;;13.98;100.00;99379.32;109508;1253;60808;-73
2023/10/27 02:41:43;;;;;;;29.40;16.80;;;;;;;13.99;100.00;99368.89;109624;1253;58701;-73
2023/10/27 02:44:13;;;;;;;30.10;16.80;;;;;;;14.00;100.00;99357.17;109630;1254;73869;-73
2023/10/27 02:46:44;;;;;;;33.10;18.00;;;;;;;14.01;100.00;99342.11;109509;1253;62291;-74
2023/10/27 02:49:11;;;;;;;29.50;16.80;;;;;;;14.01;100.00;99325.73;109507;1252;71116;-74
2023/10/27 02:51:39;;;;;;;28.90;16.20;;;;;;;14.01;100.00;99319.61;109486;1253;60607;-74
2023/10/27 02:54:07;;;;;;;18.90;14.40;;;;;;;14.02;100.00;99318.82;109446;1254;58807;-74
2023/10/27 02:56:34;;;;;;;19.70;13.90;;;;;;;14.02;100.00;99313.90;109427;1252;72681;-74
2023/10/27 02:59:05;;;;;;;21.40;14.00;;;;;;;14.01;100.00;99313.30;109531;1252;62168;-72
2023/10/27 03:01:32;;;;;;;17.00;12.20;;;;;;;13.99;100.00;99306.31;109483;1253;72733;-74
2023/10/27 03:04:00;;;;;;;19.00;12.90;;;;;;;13.98;100.00;99307.98;109486;1254;61621;-73
2023/10/27 03:06:28;;;;;;;18.20;12.90;;;;;;;13.98;100.00;99309.59;109563;1252;59123;-74
2023/10/27 03:08:56;;;;;;;22.00;12.10;;;;;;;13.98;100.00;99318.30;109517;1252;73892;-73
2023/10/27 03:11:23;;;;;;;15.90;11.50;;;;;;;13.98;100.00;99320.21;109520;1253;64520;-74
2023/10/27 03:13:50;;;;;;;15.60;10.60;;;;;;;14.00;100.00;99321.33;109381;1253;72645;-72
2023/10/27 03:16:18;;;;;;;22.40;12.80;;;;;;;14.01;100.00;99330.64;109510;1253;61691;-73
2023/10/27 03:18:46;;;;;;;20.80;13.00;;;;;;;14.05;100.00;99342.80;109603;1253;58731;-75
2023/10/27 03:21:13;;;;;;;20.00;13.70;;;;;;;14.08;100.00;99350.17;109500;1253;73953;-73
2023/10/27 03:23:41;;;;;;;15.00;11.10;;;;;;;14.14;100.00;99350.09;109530;1252;63748;-74
2023/10/27 03:26:09;;;;;;;21.80;13.40;;;;;;;14.17;100.00;99344.80;109469;1253;74828;-74
2023/10/27 03:28:36;;;;;;;18.10;12.50;;;;;;;14.20;100.00;99342.98;109484;1253;60902;-74
2023/10/27 03:31:03;;;;;;;19.20;12.30;;;;;;;14.20;100.00;99348.06;109522;1252;58705;-74
2023/10/27 03:33:31;;;;;;;14.80;10.70;;;;;;;14.21;100.00;99342.31;109542;1252;74213;-73
2023/10/27 03:35:58;;;;;;;16.90;11.30;;;;;;;14.21;100.00;99339.05;109525;1253;61468;-74
2023/10/27 03:38:26;;;;;;;15.30;11.30;;;;;;;14.20;100.00;99335.25;109529;1253;72441;-74
2023/10/27 03:40:54;;;;;;;16.10;10.90;;;;;;;14.21;100.00;99331.97;109441;1254;61702;-74
2023/10/27 03:43:21;;;;;;;24.00;12.20;;;;;;;14.21;100.00;99332.10;109574;1252;60329;-73
2023/10/27 03:45:49;;;;;;;13.40;10.40;;;;;;;14.23;100.00;99334.89;109655;1252;72844;-74
2023/10/27 03:48:17;;;;;;;16.50;11.40;;;;;;;14.26;100.00;99336.92;109664;1253;63466;-72
2023/10/27 03:50:44;;;;;;;18.30;11.80;;;;;;;14.27;100.00;99332.59;109626;1252;72370;-74
2023/10/27 03:53:12;;;;;;;16.60;11.80;;;;;;;14.29;100.00;99332.52;109623;1253;59905;-74
2023/10/27 03:55:39;;;;;;;16.90;11.10;;;;;;;14.31;100.00;99322.18;109651;1252;59677;-73
2023/10/27 03:58:16;;;;;;;18.20;12.10;;;;;;;14.33;100.00;99317.65;109597;1253;73821;-73
2023/10/27 04:00:43;;;;;;;18.90;13.60;;;;;;;14.35;100.00;99322.56;109600;1253;62290;-73
2023/10/27 04:03:11;;;;;;;17.70;12.80;;;;;;;14.36;100.00;99325.77;109623;1253;72758;-73
2023/10/27 04:05:39;;;;;;;20.30;13.00;;;;;;;14.38;100.00;99323.51;109681;1253;60406;-74
2023/10/27 04:08:06;;;;;;;19.70;11.90;;;;;;;14.41;100.00;99328.30;109772;1253;58730;-72
2023/10/27 04:10:34;;;;;;;19.10;12.80;;;;;;;14.44;100.00;99328.13;109717;1252;72684;-73
2023/10/27 04:13:03;;;;;;;17.70;13.30;;;;;;;14.48;100.00;99327.05;109655;1252;62348;-74
2023/10/27 04:15:31;;;;;;;21.60;13.80;;;;;;;14.50;100.00;99319.95;109591;1252;74125;-73
2023/10/27 04:18:00;;;;;;;19.20;12.70;;;;;;;14.54;100.00;99313.89;109599;1253;60468;-73
2023/10/27 04:20:27;;;;;;;20.80;12.90;;;;;;;14.55;100.00;99315.17;109629;1253;60056;-74
2023/10/27 04:22:55;;;;;;;17.20;13.10;;;;;;;14.56;100.00;99320.67;109614;1253;73950;-74
2023/10/27 04:25:23;;;;;;;16.80;13.60;;;;;;;14.59;100.00;99317.39;109619;1252;63695;-74
2023/10/27 04:27:50;;;;;;;17.40;12.60;;;;;;;14.61;100.00;99312.63;109577;1252;71638;-72
2023/10/27 04:30:21;;;;;;;16.40;12.50;;;;;;;14.63;100.00;99311.36;109602;1252;61662;-73
2023/10/27 04:32:48;;;;;;;16.40;12.90;;;;;;;14.65;100.00;99313.08;109598;1252;60463;-74
2023/10/27 04:35:17;;;;;;;15.70;12.70;;;;;;;14.66;100.00;99315.96;109596;1252;73951;-74
2023/10/27 04:37:44;;;;;;;19.50;14.10;;;;;;;14.69;100.00;99323.46;109587;1253;62632;-75
2023/10/27 04:40:12;;;;;;;19.10;12.50;;;;;;;14.72;100.00;99324.25;109564;1253;74814;-74
2023/10/27 04:42:39;;;;;;;20.00;13.00;;;;;;;14.75;100.00;99317.48;109586;1253;60897;-73
2023/10/27 04:45:07;;;;;;;16.00;11.90;;;;;;;14.78;100.00;99318.00;109584;1253;60140;-74
2023/10/27 04:47:35;;;;;;;16.00;12.90;;;;;;;14.81;100.00;99330.73;109570;1253;72667;-73
2023/10/27 04:50:03;;;;;;;18.40;12.80;;;;;;;14.84;100.00;99333.48;109609;1253;62451;-74
2023/10/27 04:52:30;;;;;;;15.10;11.90;;;;;;;14.86;100.00;99341.48;109577;1253;72819;-73
2023/10/27 04:54:59;;;;;;;18.50;12.30;;;;;;;14.89;100.00;99332.52;109531;1253;60615;-73
2023/10/27 04:57:27;;;;;;;16.50;12.30;;;;;;;14.92;100.00;99325.55;109624;1253;58237;-73
2023/10/27 04:59:56;;;;;;;20.40;13.70;;;;;;;14.96;100.00;99321.35;109451;1251;73924;-76
2023/10/27 05:02:23;;;;;;;16.10;11.60;;;;;;;14.99;100.00;99318.39;109589;1253;63332;-75
2023/10/27 05:04:50;;;;;;;15.60;11.70;;;;;;;15.03;100.00;99318.17;109601;1253;71483;-73
2023/10/27 05:07:18;;;;;;;18.40;11.90;;;;;;;15.07;100.00;99322.40;109541;1252;63903;-74
2023/10/27 05:09:46;;;;;;;16.60;12.70;;;;;;;15.10;100.00;99316.91;109601;1253;58843;-73
2023/10/27 05:12:13;;;;;;;14.80;11.60;;;;;;;15.14;100.00;99322.36;109581;1252;73669;-73
2023/10/27 05:14:41;;;;;;;17.20;12.50;;;;;;;15.17;100.00;99326.44;109605;1252;63696;-75
2023/10/27 05:17:08;;;;;;;16.70;12.80;;;;;;;15.21;100.00;99329.11;109603;1253;72733;-74
2023/10/27 05:19:35;;;;;;;17.40;13.10;;;;;;;15.24;100.00;99329.45;109589;1252;59403;-73
2023/10/27 05:22:05;;;;;;;18.90;12.80;;;;;;;15.27;100.00;99327.21;109655;1253;60072;-74
2023/10/27 05:24:33;;;;;;;15.20;12.50;;;;;;;15.28;100.00;99323.91;109594;1253;72656;-73
2023/10/27 05:27:01;;;;;;;17.00;13.80;;;;;;;15.30;100.00;99321.59;109607;1252;62283;-73
2023/10/27 05:29:29;;;;;;;13.90;11.70;;;;;;;15.33;100.00;99322.38;109601;1253;72762;-73
2023/10/27 05:31:56;;;;;;;16.20;12.20;;;;;;;15.34;100.00;99316.67;109622;1252;60427;-73
2023/10/27 05:34:23;;;;;;;21.30;13.70;;;;;;;15.36;100.00;99319.86;109612;1253;60675;-73
2023/10/27 05:36:52;;;;;;;20.90;13.60;;;;;;;15.37;100.00;99316.98;109620;1253;74260;-72
2023/10/27 05:39:20;;;;;;;18.00;13.50;;;;;;;15.39;100.00;99317.98;109582;1253;63566;-74
2023/10/27 05:41:47;;;;;;;15.60;13.30;;;;;;;15.42;100.00;99318.50;109608;1253;71103;-75
2023/10/27 05:44:15;;;;;;;16.40;12.80;;;;;;;15.46;100.00;99315.31;109566;1253;60474;-75
2023/10/27 05:46:43;;;;;;;18.20;13.30;;;;;;;15.49;100.00;99313.79;109623;1252;60269;-74
2023/10/27 05:49:13;;;;;;;16.40;12.30;;;;;;;15.52;100.00;99311.53;109608;1252;72181;-75
2023/10/27 05:51:40;;;;;;;17.40;12.30;;;;;;;15.53;100.00;99307.14;109572;1252;62299;-72
2023/10/27 05:54:08;;;;;;;15.90;13.80;;;;;;;15.54;100.00;99304.11;109596;1253;71014;-74
2023/10/27 05:56:35;;;;;;;19.00;13.20;;;;;;;15.55;100.00;99307.11;109604;1252;61769;-72
2023/10/27 05:59:05;;;;;;;20.90;14.20;;;;;;;15.58;100.00;99317.98;109582;1252;58965;-73
2023/10/27 06:01:33;;;;;;;21.40;13.70;;;;;;;15.61;100.00;99315.05;109601;1252;73851;-74
2023/10/27 06:04:00;;;;;;;17.30;13.90;;;;;;;15.64;100.00;99318.33;109606;1253;63509;-73
2023/10/27 06:06:28;;;;;;;19.20;13.40;;;;;;;15.69;100.00;99318.05;109594;1252;71224;-75
2023/10/27 06:08:55;;;;;;;18.20;14.80;;;;;;;15.73;100.00;99317.13;109604;1253;61023;-74
2023/10/27 06:11:23;;;;;;;20.90;15.20;;;;;;;15.78;100.00;99316.09;109561;1252;59117;-74
2023/10/27 06:13:50;;;;;;;18.40;15.30;;;;;;;15.83;100.00;99314.92;109582;1252;73987;-74
2023/10/27 06:16:18;;;;;;;22.10;16.40;;;;;;;15.86;100.00;99315.34;109471;1252;63566;-75
2023/10/27 06:18:45;;;;;;;24.70;17.70;;;;;;;15.88;100.00;99313.10;109565;1252;70195;-74
2023/10/27 06:21:13;;;;;;;24.90;17.70;;;;;;;15.91;100.00;99311.53;109583;1253;60275;-73
2023/10/27 06:23:40;;;;;;;27.40;19.70;;;;;;;15.95;100.00;99312.80;109652;1252;60022;-73
2023/10/27 06:26:08;;;;;;;28.90;19.30;;;;;;;15.96;100.00;99313.02;109631;1252;73862;-73
2023/10/27 06:28:35;;;;;;;28.10;19.40;;;;;;;15.97;100.00;99317.69;109628;1253;64206;-73
2023/10/27 06:31:03;;;;;;;31.50;19.70;;;;;;;15.98;100.00;99321.33;109573;1252;72715;-72
2023/10/27 06:33:34;;;;;;;30.00;19.40;;;;;;;15.99;100.00;99322.04;109596;1252;60388;-74
2023/10/27 06:36:01;;;;;;;31.40;19.70;;;;;;;16.02;100.00;99318.80;109581;1252;58759;-73
2023/10/27 06:38:29;;;;;;;26.00;18.90;;;;;;;16.04;100.00;99318.91;109587;1252;73854;-75
2023/10/27 06:40:57;;;;;;;28.70;21.00;;;;;;;16.06;100.00;99321.87;109639;1253;63704;-74
2023/10/27 06:43:26;;;;;;;26.50;19.50;;;;;;;16.09;100.00;99321.33;109538;1253;71363;-74
2023/10/27 06:45:54;;;;;;;28.30;19.40;;;;;;;16.12;100.00;99314.48;109570;1253;61765;-74
2023/10/27 06:48:21;;;;;;;31.90;20.70;;;;;;;16.14;100.00;99319.24;109728;1252;58747;-73
2023/10/27 06:50:49;;;;;;;31.20;20.70;;;;;;;16.14;100.00;99321.01;109641;1252;75849;-74
2023/10/27 06:53:17;;;;;;;30.20;20.50;;;;;;;16.15;100.00;99318.83;109621;1252;63937;-74
2023/10/27 06:55:44;;;;;;;29.90;21.00;;;;;;;16.17;100.00;99316.45;109585;1253;71722;-75
2023/10/27 06:58:12;;;;;;;27.60;20.60;;;;;;;16.20;100.00;99318.48;109587;1253;61674;-75
2023/10/27 07:00:40;;;;;;;33.30;20.50;;;;;;;16.22;100.00;99319.84;109618;1253;58719;-74
2023/10/27 07:03:07;;;;;;;31.10;21.80;;;;;;;16.23;100.00;99323.81;109627;1252;72878;-76
2023/10/27 07:05:55;;;;;;;30.40;21.20;;;;;;;16.24;100.00;99323.02;109627;1251;63669;-75
2023/10/27 07:08:24;;;;;;;38.10;22.40;;;;;;;16.25;100.00;99319.36;109574;1252;71264;-74
2023/10/27 07:10:57;;;;;;;37.50;23.50;;;;;;;16.27;100.00;99318.47;109572;1253;61695;-74
2023/10/27 07:13:26;;;;;;;35.40;23.60;;;;;;;16.29;100.00;99316.59;109611;1253;58932;-76
2023/10/27 07:15:53;;;;;;;39.90;24.20;;;;;;;16.33;100.00;99317.10;109569;1252;74957;-74
2023/10/27 07:18:21;;;;;;;35.10;25.60;;;;;;;16.36;100.00;99319.42;109596;1253;63664;-74
2023/10/27 07:20:49;;;;;;;34.70;23.70;;;;;;;16.39;100.00;99322.66;109569;1253;71422;-75
2023/10/27 07:23:16;;;;;;;39.10;24.70;;;;;;;16.44;100.00;99331.65;109604;1252;63016;-74
2023/10/27 07:25:44;;;;;;;39.80;24.30;;;;;;;16.49;100.00;99340.61;109598;1253;60221;-75
2023/10/27 07:28:12;;;;;;;32.00;23.20;;;;;;;16.56;100.00;99344.48;109587;1252;74074;-75
2023/10/27 07:30:40;;;;;;;36.60;23.50;;;;;;;16.63;100.00;99336.23;109595;1253;65915;-75
2023/10/27 07:33:10;;;;;;;29.20;24.00;;;;;;;16.70;100.00;99332.66;109663;1251;72665;-76
2023/10/27 07:35:37;;;;;;;33.80;24.80;;;;;;;16.79;100.00;99333.77;109571;1252;64100;-76
2023/10/27 07:38:05;;;;;;;30.40;23.60;;;;;;;16.86;100.00;99344.33;109624;1253;58902;-76
2023/10/27 07:40:41;;;;;;;35.40;23.90;;;;;;;16.92;100.00;99347.75;109591;1253;72648;-76
2023/10/27 07:43:08;;;;;;;44.10;24.10;;;;;;;16.96;100.00;99350.36;109633;1252;62678;-75
2023/10/27 07:45:36;;;;;;;35.10;23.40;;;;;;;16.97;100.00;99355.15;109489;1252;73232;-74
2023/10/27 07:48:05;;;;;;;39.60;24.40;;;;;;;16.98;100.00;99361.20;109588;1253;61743;-75
2023/10/27 07:50:34;;;;;;;44.40;25.00;;;;;;;16.99;100.00;99361.52;109656;1252;60002;-74
2023/10/27 07:53:03;;;;;;;38.70;25.40;;;;;;;16.98;100.00;99354.37;109582;1252;73973;-74
2023/10/27 07:55:30;;;;;;;37.50;23.40;;;;;;;16.98;100.00;99352.56;109611;1253;64687;-73
2023/10/27 07:57:59;;;;;;;44.00;26.40;;;;;;;17.01;100.00;99354.43;109581;1252;75029;-74
2023/10/27 08:00:26;;;;;;;39.80;23.80;;;;;;;17.03;100.00;99356.29;109609;1253;61746;-75
2023/10/27 08:02:53;;;;;;;35.90;22.60;;;;;;;17.06;100.00;99355.49;109652;1252;61069;-74
2023/10/27 08:05:21;;;;;;;41.20;23.00;;;;;;;17.10;100.00;99362.48;109584;1253;76127;-74
2023/10/27 08:07:48;;;;;;;42.00;25.50;;;;;;;17.14;100.00;99361.30;109589;1251;65853;-73
2023/10/27 08:10:16;;;;;;;40.50;23.80;;;;;;;17.21;100.00;99355.98;109553;1252;74826;-73
2023/10/27 08:12:44;;;;;;;42.00;24.50;;;;;;;17.30;100.00;99354.63;109578;1253;60445;-73
2023/10/27 08:15:11;;;;;;;41.90;23.50;;;;;;;17.38;100.00;99355.15;109601;1253;60014;-76
2023/10/27 08:17:38;;;;;;;41.40;25.00;;;;;;;17.46;100.00;99361.77;109585;1253;73003;-74
2023/10/27 08:20:06;;;;;;;38.70;24.20;;;;;;;17.51;100.00;99365.38;109590;1253;63572;-74
2023/10/27 08:22:34;;;;;;;36.30;24.40;;;;;;;17.57;100.00;99370.63;109555;1252;71790;-74
2023/10/27 08:25:03;;;;;;;36.00;23.80;;;;;;;17.61;100.00;99374.04;109526;1253;60243;-74
2023/10/27 08:27:31;;;;;;;38.40;23.60;;;;;;;17.65;100.00;99374.38;109645;1252;60366;-75
2023/10/27 08:29:58;;;;;;;37.50;23.60;;;;;;;17.67;100.00;99374.80;109527;1252;75035;-74
2023/10/27 08:32:26;;;;;;;33.10;21.70;;;;;;;17.72;100.00;99376.22;109616;1252;62279;-74
2023/10/27 08:34:54;;;;;;;36.30;22.00;;;;;;;17.77;100.00;99371.80;109582;1253;74992;-73
2023/10/27 08:37:21;;;;;;;36.50;23.60;;;;;;;17.80;100.00;99369.48;109485;1252;61872;-76
2023/10/27 08:39:49;;;;;;;31.30;20.70;;;;;;;17.87;100.00;99369.45;109631;1252;58817;-73
2023/10/27 08:42:16;;;;;;;30.40;19.10;;;;;;;17.94;100.00;99372.21;109606;1253;72475;-74
2023/10/27 08:44:44;;;;;;;30.40;20.60;;;;;;;17.97;100.00;99372.17;109593;1253;64363;-76
2023/10/27 08:47:12;;;;;;;28.40;19.40;;;;;;;18.01;100.00;99367.52;109568;1253;74940;-75
2023/10/27 08:49:40;;;;;;;27.80;18.70;;;;;;;18.08;100.00;99372.87;109546;1253;61828;-75
2023/10/27 08:52:08;;;;;;;31.00;20.70;;;;;;;18.16;100.00;99370.85;109550;1252;59917;-74
2023/10/27 08:54:40;;;;;;;31.50;18.70;;;;;;;18.27;100.00;99369.11;109587;1250;74792;-76
2023/10/27 08:57:08;;;;;;;27.60;17.90;;;;;;;18.38;100.00;99370.79;109651;1250;62810;-75
2023/10/27 08:59:36;;;;;;;24.20;17.20;;;;;;;18.48;100.00;99368.69;109448;1251;72565;-73
2023/10/27 09:02:04;;;;;;;22.60;17.10;;;;;;;18.57;100.00;99370.11;109575;1253;62604;-76
2023/10/27 09:04:33;;;;;;;32.20;16.40;;;;;;;18.63;100.00;99372.65;109333;1251;271548;-75
2023/10/27 09:08:32;;;;;;;26.20;16.40;;;;;;;18.75;100.00;99379.80;102551;1295;600625;-76
2023/10/27 09:11:00;;;;;;;26.50;16.90;;;;;;;18.91;100.00;99379.37;104711;1273;63942;-75
2023/10/27 09:13:27;;;;;;;20.80;14.70;;;;;;;19.10;100.00;99377.14;104766;1271;61718;-76
2023/10/27 09:15:56;;;;;;;24.80;15.60;;;;;;;19.29;100.00;99374.84;104624;1273;71930;-76
2023/10/27 09:18:35;;;;;;;23.10;15.60;;;;;;;19.44;100.00;99372.64;105488;1260;64023;-79
2023/10/27 09:21:04;;;;;;;29.90;14.40;;;;;;;19.62;100.00;99370.24;105311;1258;216851;-76
2023/10/27 09:23:43;;;;;;;23.80;12.80;;;;;;;19.88;100.00;99368.21;105610;1260;60484;-77
2023/10/27 09:26:11;;;;;;;25.20;14.20;;;;;;;20.17;100.00;99364.42;105530;1254;62295;-75
2023/10/27 09:28:46;;;;;;;21.10;12.60;;;;;;;20.47;100.00;99368.48;105621;1255;71216;-77
2023/10/27 09:31:31;;;;;;;21.00;13.70;;;;;;;20.70;100.00;99367.75;105915;1259;64397;-76
2023/10/27 09:34:23;;;;;;;16.40;12.60;;;;;;;21.08;100.00;99369.60;106150;1254;74974;-74
2023/10/27 09:36:58;;;;;;;23.60;13.50;;;;;;;21.59;100.00;99377.27;107009;1257;59778;-75
2023/10/27 09:39:26;;;;;;;24.70;13.60;;;;;;;22.11;100.00;99381.54;105791;1254;61004;-76
2023/10/27 09:41:58;;;;;;;19.90;11.80;;;;;;;22.65;100.00;99382.98;105695;1254;73951;-80
2023/10/27 09:44:35;;;;;;;17.60;11.70;;;;;;;23.03;100.00;99377.98;105732;1256;64820;-78
2023/10/27 09:47:06;;;;;;;19.20;12.70;;;;;;;23.31;100.00;99371.44;105507;1261;72849;-78
2023/10/27 09:49:34;;;;;;;15.90;10.50;;;;;;;23.65;100.00;99363.84;105686;1255;59737;-78
2023/10/27 09:52:02;;;;;;;17.10;11.00;;;;;;;24.04;100.00;99367.45;105694;1262;60065;-79
2023/10/27 09:54:31;;;;;;;19.90;12.40;;;;;;;24.31;100.00;99369.63;105616;1260;74580;-77
2023/10/27 09:56:59;;;;;;;19.10;11.80;;;;;;;24.65;100.00;99377.00;105782;1259;64581;-77
2023/10/27 09:59:28;;;;;;;17.40;12.10;;;;;;;24.98;100.00;99372.88;105847;1258;74963;-77
2023/10/27 10:01:59;;;;;;;22.30;11.90;;;;;;;25.12;100.00;99372.41;105658;1261;60189;-78
2023/10/27 10:04:52;;;;;;;12.90;10.60;;;;;;;25.33;100.00;99372.40;105747;1257;59651;-78
2023/10/27 10:07:37;;;;;;;19.60;12.10;;;;;;;25.63;100.00;99375.08;105714;1255;73866;-75
2023/10/27 10:10:26;;;;;;;16.40;10.60;;;;;;;25.81;100.00;99377.46;105689;1257;66745;-78
2023/10/27 10:13:08;;;;;;;17.90;11.10;;;;;;;25.91;100.00;99382.89;105780;1257;74900;-79
2023/10/27 10:15:40;;;;;;;18.30;10.90;;;;;;;25.79;100.00;99390.66;105749;1254;59651;-76
2023/10/27 10:18:08;;;;;;;15.40;11.00;;;;;;;25.60;100.00;99389.77;105684;1257;59810;-77
2023/10/27 10:20:58;;;;;;;19.00;10.50;;;;;;;25.33;100.00;99390.44;105726;1257;73180;-75
2023/10/27 10:23:40;;;;;;;14.60;10.10;;;;;;;24.94;100.00;99389.91;105693;1254;62926;-76
2023/10/27 10:26:10;;;;;;;14.20;10.50;;;;;;;24.50;100.00;99391.86;105742;1257;71474;-77
2023/10/27 10:28:39;;;;;;;18.10;12.40;;;;;;;24.08;100.00;99391.58;105654;1259;60511;-76
2023/10/27 10:31:07;;;;;;;14.40;10.00;;;;;;;23.84;100.00;99386.83;105810;1253;60626;-77
2023/10/27 10:33:35;;;;;;;18.50;10.60;;;;;;;23.91;100.00;99373.33;105668;1257;73470;-77
2023/10/27 10:36:20;;;;;;;13.90;9.50;;;;;;;24.22;100.00;99369.12;105911;1255;66247;-79
2023/10/27 10:38:58;;;;;;;17.00;11.10;;;;;;;24.61;100.00;99370.09;105705;1255;72476;-76
2023/10/27 10:41:49;;;;;;;15.10;8.20;;;;;;;24.93;100.00;99369.04;105725;1254;61086;-78
2023/10/27 10:44:18;;;;;;;15.70;8.90;;;;;;;25.15;100.00;99378.68;105747;1257;60095;-77
2023/10/27 10:46:46;;;;;;;12.70;8.20;;;;;;;25.22;100.00;99378.43;105767;1258;73684;-76
2023/10/27 10:49:24;;;;;;;14.20;7.50;;;;;;;25.17;100.00;99382.02;105597;1257;64613;-75
2023/10/27 10:51:55;;;;;;;17.50;8.10;;;;;;;24.99;100.00;99391.61;105684;1253;71674;-75
2023/10/27 10:54:28;;;;;;;14.60;8.80;;;;;;;24.76;100.00;99400.61;105791;1259;59740;-75
2023/10/27 10:57:13;;;;;;;10.00;8.20;;;;;;;24.50;100.00;99400.16;105614;1254;60625;-77
2023/10/27 10:59:53;;;;;;;13.60;7.80;;;;;;;24.23;100.00;99404.52;105595;1253;74119;-76
2023/10/27 11:02:23;;;;;;;12.70;8.90;;;;;;;23.94;100.00;99406.81;105588;1257;63556;-74
2023/10/27 11:04:51;;;;;;;12.90;8.30;;;;;;;23.68;100.00;99403.08;105639;1254;72166;-77
2023/10/27 11:07:20;;;;;;;12.20;7.90;;;;;;;23.43;100.00;99401.90;105692;1257;60198;-77
2023/10/27 11:09:48;;;;;;;11.90;8.10;;;;;;;23.16;100.00;99401.30;105747;1257;59730;-77
2023/10/27 11:12:24;;;;;;;15.30;7.90;;;;;;;22.90;100.00;99400.77;105634;1257;73263;-75